sensor_id;sensor_type;location;lat;lon;timestamp;temperature;humidity
14577;DHT22;7375;46.072;14.470;2022-07-29T00:01:24;25.00;61.20
14577;DHT22;7375;46.072;14.470;2022-07-29T00:03:52;25.00;61.20
14577;DHT22;7375;46.072;14.470;2022-07-29T00:06:18;25.00;61.20
14577;DHT22;7375;46.072;14.470;2022-07-29T00:08:46;25.00;61.20
14577;DHT22;7375;46.072;14.470;2022-07-29T00:11:13;24.90;61.10
14577;DHT22;7375;46.072;14.470;2022-07-29T00:13:39;25.00;61.30
14577;DHT22;7375;46.072;14.470;2022-07-29T00:16:06;24.90;61.20
14577;DHT22;7375;46.072;14.470;2022-07-29T00:18:33;24.90;61.20
14577;DHT22;7375;46.072;14.470;2022-07-29T00:21:01;24.90;61.00
14577;DHT22;7375;46.072;14.470;2022-07-29T00:23:28;24.90;60.90
14577;DHT22;7375;46.072;14.470;2022-07-29T00:25:55;24.90;60.80
14577;DHT22;7375;46.072;14.470;2022-07-29T00:28:21;24.90;60.70
14577;DHT22;7375;46.072;14.470;2022-07-29T00:30:48;24.90;60.60
14577;DHT22;7375;46.072;14.470;2022-07-29T00:33:15;24.90;60.60
14577;DHT22;7375;46.072;14.470;2022-07-29T00:35:42;24.80;60.60
14577;DHT22;7375;46.072;14.470;2022-07-29T00:38:12;24.80;60.60
14577;DHT22;7375;46.072;14.470;2022-07-29T00:40:39;24.80;60.50
14577;DHT22;7375;46.072;14.470;2022-07-29T00:43:07;24.80;60.60
14577;DHT22;7375;46.072;14.470;2022-07-29T00:45:34;24.80;60.60
14577;DHT22;7375;46.072;14.470;2022-07-29T00:48:01;24.80;60.60
14577;DHT22;7375;46.072;14.470;2022-07-29T00:50:28;24.80;60.60
14577;DHT22;7375;46.072;14.470;2022-07-29T00:52:55;24.80;60.70
14577;DHT22;7375;46.072;14.470;2022-07-29T00:55:23;24.80;60.70
14577;DHT22;7375;46.072;14.470;2022-07-29T00:57:50;24.80;60.70
14577;DHT22;7375;46.072;14.470;2022-07-29T01:00:18;24.70;60.70
14577;DHT22;7375;46.072;14.470;2022-07-29T01:02:45;24.70;60.70
14577;DHT22;7375;46.072;14.470;2022-07-29T01:05:13;24.70;61.20
14577;DHT22;7375;46.072;14.470;2022-07-29T01:07:41;24.70;60.70
14577;DHT22;7375;46.072;14.470;2022-07-29T01:10:08;24.70;60.70
14577;DHT22;7375;46.072;14.470;2022-07-29T01:12:37;24.70;60.60
14577;DHT22;7375;46.072;14.470;2022-07-29T01:15:05;24.70;60.70
14577;DHT22;7375;46.072;14.470;2022-07-29T01:17:33;24.60;60.60
14577;DHT22;7375;46.072;14.470;2022-07-29T01:20:02;24.60;60.70
14577;DHT22;7375;46.072;14.470;2022-07-29T01:22:39;24.60;60.60
14577;DHT22;7375;46.072;14.470;2022-07-29T01:25:17;24.60;60.60
14577;DHT22;7375;46.072;14.470;2022-07-29T01:27:59;24.60;60.60
14577;DHT22;7375;46.072;14.470;2022-07-29T01:30:29;24.60;60.60
14577;DHT22;7375;46.072;14.470;2022-07-29T01:32:59;24.60;60.70
14577;DHT22;7375;46.072;14.470;2022-07-29T01:35:28;24.60;60.70
14577;DHT22;7375;46.072;14.470;2022-07-29T01:37:57;24.60;60.70
14577;DHT22;7375;46.072;14.470;2022-07-29T01:40:29;24.60;60.80
14577;DHT22;7375;46.072;14.470;2022-07-29T01:42:58;24.60;60.80
14577;DHT22;7375;46.072;14.470;2022-07-29T01:45:28;24.60;60.90
14577;DHT22;7375;46.072;14.470;2022-07-29T01:48:00;24.50;60.80
14577;DHT22;7375;46.072;14.470;2022-07-29T01:50:30;24.50;60.80
14577;DHT22;7375;46.072;14.470;2022-07-29T01:53:00;24.50;60.90
14577;DHT22;7375;46.072;14.470;2022-07-29T01:55:28;24.50;61.00
14577;DHT22;7375;46.072;14.470;2022-07-29T01:57:58;24.50;61.10
14577;DHT22;7375;46.072;14.470;2022-07-29T02:00:27;24.50;61.20
14577;DHT22;7375;46.072;14.470;2022-07-29T02:02:54;24.50;61.20
14577;DHT22;7375;46.072;14.470;2022-07-29T02:05:24;24.50;61.30
14577;DHT22;7375;46.072;14.470;2022-07-29T02:07:53;24.50;61.30
14577;DHT22;7375;46.072;14.470;2022-07-29T02:10:21;24.50;61.30
14577;DHT22;7375;46.072;14.470;2022-07-29T02:12:49;24.50;61.30
14577;DHT22;7375;46.072;14.470;2022-07-29T02:15:16;24.50;61.20
14577;DHT22;7375;46.072;14.470;2022-07-29T02:17:43;24.40;61.20
14577;DHT22;7375;46.072;14.470;2022-07-29T02:20:12;24.40;61.10
14577;DHT22;7375;46.072;14.470;2022-07-29T02:22:42;24.40;61.00
14577;DHT22;7375;46.072;14.470;2022-07-29T02:25:10;24.40;60.90
14577;DHT22;7375;46.072;14.470;2022-07-29T02:27:38;24.40;60.80
14577;DHT22;7375;46.072;14.470;2022-07-29T02:30:06;24.40;60.90
14577;DHT22;7375;46.072;14.470;2022-07-29T02:32:35;24.40;60.80
14577;DHT22;7375;46.072;14.470;2022-07-29T02:35:03;24.30;60.80
14577;DHT22;7375;46.072;14.470;2022-07-29T02:37:31;24.30;60.80
14577;DHT22;7375;46.072;14.470;2022-07-29T02:39:59;24.30;60.80
14577;DHT22;7375;46.072;14.470;2022-07-29T02:42:27;24.30;60.80
14577;DHT22;7375;46.072;14.470;2022-07-29T02:44:54;24.30;60.80
14577;DHT22;7375;46.072;14.470;2022-07-29T02:47:22;24.30;60.90
14577;DHT22;7375;46.072;14.470;2022-07-29T02:49:52;24.30;60.80
14577;DHT22;7375;46.072;14.470;2022-07-29T02:52:21;24.30;60.80
14577;DHT22;7375;46.072;14.470;2022-07-29T02:54:51;24.30;60.90
14577;DHT22;7375;46.072;14.470;2022-07-29T02:57:20;24.30;60.90
14577;DHT22;7375;46.072;14.470;2022-07-29T02:59:48;24.30;60.90
14577;DHT22;7375;46.072;14.470;2022-07-29T03:02:16;24.20;60.80
14577;DHT22;7375;46.072;14.470;2022-07-29T03:04:43;24.20;60.80
14577;DHT22;7375;46.072;14.470;2022-07-29T03:07:11;24.20;60.90
14577;DHT22;7375;46.072;14.470;2022-07-29T03:09:42;24.20;60.90
14577;DHT22;7375;46.072;14.470;2022-07-29T03:12:09;24.20;60.90
14577;DHT22;7375;46.072;14.470;2022-07-29T03:14:38;24.20;60.90
14577;DHT22;7375;46.072;14.470;2022-07-29T03:17:04;24.20;60.90
14577;DHT22;7375;46.072;14.470;2022-07-29T03:19:31;24.20;60.90
14577;DHT22;7375;46.072;14.470;2022-07-29T03:21:59;24.20;60.80
14577;DHT22;7375;46.072;14.470;2022-07-29T03:24:27;24.20;60.70
14577;DHT22;7375;46.072;14.470;2022-07-29T03:26:54;24.10;60.70
14577;DHT22;7375;46.072;14.470;2022-07-29T03:29:21;24.10;60.70
14577;DHT22;7375;46.072;14.470;2022-07-29T03:31:49;24.10;60.80
14577;DHT22;7375;46.072;14.470;2022-07-29T03:34:15;24.10;60.80
14577;DHT22;7375;46.072;14.470;2022-07-29T03:36:42;24.10;60.80
14577;DHT22;7375;46.072;14.470;2022-07-29T03:39:09;24.10;60.80
14577;DHT22;7375;46.072;14.470;2022-07-29T03:41:36;24.10;60.80
14577;DHT22;7375;46.072;14.470;2022-07-29T03:44:06;24.10;60.80
14577;DHT22;7375;46.072;14.470;2022-07-29T03:46:34;24.10;60.80
14577;DHT22;7375;46.072;14.470;2022-07-29T03:49:03;24.00;60.70
14577;DHT22;7375;46.072;14.470;2022-07-29T03:51:30;24.00;60.70
14577;DHT22;7375;46.072;14.470;2022-07-29T03:53:57;24.00;60.80
14577;DHT22;7375;46.072;14.470;2022-07-29T03:56:24;24.00;60.80
14577;DHT22;7375;46.072;14.470;2022-07-29T03:58:52;24.00;60.80
14577;DHT22;7375;46.072;14.470;2022-07-29T04:01:19;24.00;60.80
14577;DHT22;7375;46.072;14.470;2022-07-29T04:03:46;24.00;60.80
14577;DHT22;7375;46.072;14.470;2022-07-29T04:06:14;24.00;60.90
14577;DHT22;7375;46.072;14.470;2022-07-29T04:08:41;24.00;61.00
14577;DHT22;7375;46.072;14.470;2022-07-29T04:11:07;24.00;61.10
14577;DHT22;7375;46.072;14.470;2022-07-29T04:13:34;24.00;61.10
14577;DHT22;7375;46.072;14.470;2022-07-29T04:16:01;24.00;61.10
14577;DHT22;7375;46.072;14.470;2022-07-29T04:18:28;24.00;61.10
14577;DHT22;7375;46.072;14.470;2022-07-29T04:20:54;24.00;61.20
14577;DHT22;7375;46.072;14.470;2022-07-29T04:23:22;24.00;61.30
14577;DHT22;7375;46.072;14.470;2022-07-29T04:25:49;24.00;61.30
14577;DHT22;7375;46.072;14.470;2022-07-29T04:28:16;24.00;61.30
14577;DHT22;7375;46.072;14.470;2022-07-29T04:30:43;24.00;61.30
14577;DHT22;7375;46.072;14.470;2022-07-29T04:33:09;24.00;61.30
14577;DHT22;7375;46.072;14.470;2022-07-29T04:35:37;24.00;61.40
14577;DHT22;7375;46.072;14.470;2022-07-29T04:38:04;24.00;61.40
14577;DHT22;7375;46.072;14.470;2022-07-29T04:40:33;24.00;61.50
14577;DHT22;7375;46.072;14.470;2022-07-29T04:43:00;24.00;61.50
14577;DHT22;7375;46.072;14.470;2022-07-29T04:45:26;24.00;61.60
14577;DHT22;7375;46.072;14.470;2022-07-29T04:47:54;24.00;61.60
14577;DHT22;7375;46.072;14.470;2022-07-29T04:50:21;24.00;61.60
14577;DHT22;7375;46.072;14.470;2022-07-29T04:52:48;24.00;61.60
14577;DHT22;7375;46.072;14.470;2022-07-29T04:55:15;24.00;61.60
14577;DHT22;7375;46.072;14.470;2022-07-29T04:57:43;24.00;61.70
14577;DHT22;7375;46.072;14.470;2022-07-29T05:00:10;24.00;61.70
14577;DHT22;7375;46.072;14.470;2022-07-29T05:02:37;24.00;61.80
14577;DHT22;7375;46.072;14.470;2022-07-29T05:05:04;24.00;61.80
14577;DHT22;7375;46.072;14.470;2022-07-29T05:07:31;24.00;61.80
14577;DHT22;7375;46.072;14.470;2022-07-29T05:09:58;24.00;61.80
14577;DHT22;7375;46.072;14.470;2022-07-29T05:12:25;24.00;61.80
14577;DHT22;7375;46.072;14.470;2022-07-29T05:14:53;24.00;61.80
14577;DHT22;7375;46.072;14.470;2022-07-29T05:17:19;24.00;61.80
14577;DHT22;7375;46.072;14.470;2022-07-29T05:19:46;24.00;61.90
14577;DHT22;7375;46.072;14.470;2022-07-29T05:22:16;24.10;62.00
14577;DHT22;7375;46.072;14.470;2022-07-29T05:24:43;24.10;61.90
14577;DHT22;7375;46.072;14.470;2022-07-29T05:27:10;24.20;62.00
14577;DHT22;7375;46.072;14.470;2022-07-29T05:29:37;24.10;61.80
14577;DHT22;7375;46.072;14.470;2022-07-29T05:32:05;24.20;62.00
14577;DHT22;7375;46.072;14.470;2022-07-29T05:34:32;24.20;62.00
14577;DHT22;7375;46.072;14.470;2022-07-29T05:36:59;24.20;62.00
14577;DHT22;7375;46.072;14.470;2022-07-29T05:39:26;24.20;62.10
14577;DHT22;7375;46.072;14.470;2022-07-29T05:41:52;24.20;62.10
14577;DHT22;7375;46.072;14.470;2022-07-29T05:44:19;24.20;62.20
14577;DHT22;7375;46.072;14.470;2022-07-29T05:46:46;24.20;62.30
14577;DHT22;7375;46.072;14.470;2022-07-29T05:49:14;24.20;62.40
14577;DHT22;7375;46.072;14.470;2022-07-29T05:51:41;24.20;62.40
14577;DHT22;7375;46.072;14.470;2022-07-29T05:54:07;24.20;62.50
14577;DHT22;7375;46.072;14.470;2022-07-29T05:56:35;24.20;62.50
14577;DHT22;7375;46.072;14.470;2022-07-29T05:59:02;24.20;62.60
14577;DHT22;7375;46.072;14.470;2022-07-29T06:01:29;24.20;62.60
14577;DHT22;7375;46.072;14.470;2022-07-29T06:03:56;24.20;62.60
14577;DHT22;7375;46.072;14.470;2022-07-29T06:06:25;24.20;62.60
14577;DHT22;7375;46.072;14.470;2022-07-29T06:08:51;24.20;62.50
14577;DHT22;7375;46.072;14.470;2022-07-29T06:11:18;24.30;62.50
14577;DHT22;7375;46.072;14.470;2022-07-29T06:13:45;24.60;62.00
14577;DHT22;7375;46.072;14.470;2022-07-29T06:16:13;24.80;61.60
14577;DHT22;7375;46.072;14.470;2022-07-29T06:18:40;25.00;61.20
14577;DHT22;7375;46.072;14.470;2022-07-29T06:21:07;25.20;60.80
14577;DHT22;7375;46.072;14.470;2022-07-29T06:23:36;25.30;60.40
14577;DHT22;7375;46.072;14.470;2022-07-29T06:26:04;25.40;60.10
14577;DHT22;7375;46.072;14.470;2022-07-29T06:28:31;25.50;59.90
14577;DHT22;7375;46.072;14.470;2022-07-29T06:30:57;25.60;59.60
14577;DHT22;7375;46.072;14.470;2022-07-29T06:33:24;25.60;59.30
14577;DHT22;7375;46.072;14.470;2022-07-29T06:35:51;25.70;59.10
14577;DHT22;7375;46.072;14.470;2022-07-29T06:38:18;25.80;58.90
14577;DHT22;7375;46.072;14.470;2022-07-29T06:40:46;25.90;58.80
14577;DHT22;7375;46.072;14.470;2022-07-29T06:43:29;26.00;58.60
14577;DHT22;7375;46.072;14.470;2022-07-29T06:45:58;26.10;58.30
14577;DHT22;7375;46.072;14.470;2022-07-29T06:48:24;26.20;58.10
14577;DHT22;7375;46.072;14.470;2022-07-29T06:50:51;26.30;58.00
14577;DHT22;7375;46.072;14.470;2022-07-29T06:53:18;26.30;57.80
14577;DHT22;7375;46.072;14.470;2022-07-29T06:55:47;26.40;57.90
14577;DHT22;7375;46.072;14.470;2022-07-29T06:58:15;26.40;57.90
14577;DHT22;7375;46.072;14.470;2022-07-29T07:00:43;26.40;57.70
14577;DHT22;7375;46.072;14.470;2022-07-29T07:03:10;26.40;57.60
14577;DHT22;7375;46.072;14.470;2022-07-29T07:05:37;26.40;57.40
14577;DHT22;7375;46.072;14.470;2022-07-29T07:08:04;26.50;57.20
14577;DHT22;7375;46.072;14.470;2022-07-29T07:10:30;26.60;57.20
14577;DHT22;7375;46.072;14.470;2022-07-29T07:12:59;26.60;57.20
14577;DHT22;7375;46.072;14.470;2022-07-29T07:15:26;26.60;57.20
14577;DHT22;7375;46.072;14.470;2022-07-29T07:17:53;26.70;57.20
14577;DHT22;7375;46.072;14.470;2022-07-29T07:20:20;26.70;57.00
14577;DHT22;7375;46.072;14.470;2022-07-29T07:22:47;26.70;57.00
14577;DHT22;7375;46.072;14.470;2022-07-29T07:25:14;26.80;57.10
14577;DHT22;7375;46.072;14.470;2022-07-29T07:27:42;26.80;57.00
14577;DHT22;7375;46.072;14.470;2022-07-29T07:30:11;26.80;57.00
14577;DHT22;7375;46.072;14.470;2022-07-29T07:32:37;26.90;56.90
14577;DHT22;7375;46.072;14.470;2022-07-29T07:35:05;26.90;56.90
14577;DHT22;7375;46.072;14.470;2022-07-29T07:37:32;26.90;56.80
14577;DHT22;7375;46.072;14.470;2022-07-29T07:39:59;26.90;56.80
14577;DHT22;7375;46.072;14.470;2022-07-29T07:42:26;27.00;56.70
14577;DHT22;7375;46.072;14.470;2022-07-29T07:44:53;27.70;55.50
14577;DHT22;7375;46.072;14.470;2022-07-29T07:47:21;28.00;54.70
14577;DHT22;7375;46.072;14.470;2022-07-29T07:49:49;28.00;54.60
14577;DHT22;7375;46.072;14.470;2022-07-29T07:52:16;28.00;54.50
14577;DHT22;7375;46.072;14.470;2022-07-29T07:54:43;27.90;54.90
14577;DHT22;7375;46.072;14.470;2022-07-29T07:57:10;27.80;55.10
14577;DHT22;7375;46.072;14.470;2022-07-29T07:59:37;27.90;55.10
14577;DHT22;7375;46.072;14.470;2022-07-29T08:02:06;27.90;54.90
14577;DHT22;7375;46.072;14.470;2022-07-29T08:04:36;27.90;54.90
14577;DHT22;7375;46.072;14.470;2022-07-29T08:07:05;27.90;55.10
14577;DHT22;7375;46.072;14.470;2022-07-29T08:09:33;27.90;55.00
14577;DHT22;7375;46.072;14.470;2022-07-29T08:11:59;27.90;54.80
14577;DHT22;7375;46.072;14.470;2022-07-29T08:14:32;27.90;54.90
14577;DHT22;7375;46.072;14.470;2022-07-29T08:16:59;27.90;55.10
14577;DHT22;7375;46.072;14.470;2022-07-29T08:19:26;27.90;55.10
14577;DHT22;7375;46.072;14.470;2022-07-29T08:21:54;27.90;55.10
14577;DHT22;7375;46.072;14.470;2022-07-29T08:24:25;27.90;55.10
14577;DHT22;7375;46.072;14.470;2022-07-29T08:27:12;27.90;55.20
14577;DHT22;7375;46.072;14.470;2022-07-29T08:29:39;27.90;55.20
14577;DHT22;7375;46.072;14.470;2022-07-29T08:32:06;27.90;55.20
14577;DHT22;7375;46.072;14.470;2022-07-29T08:34:32;27.80;55.20
14577;DHT22;7375;46.072;14.470;2022-07-29T08:37:04;27.90;55.20
14577;DHT22;7375;46.072;14.470;2022-07-29T08:39:31;27.90;55.20
14577;DHT22;7375;46.072;14.470;2022-07-29T08:41:58;27.80;55.10
14577;DHT22;7375;46.072;14.470;2022-07-29T08:44:27;27.80;55.20
14577;DHT22;7375;46.072;14.470;2022-07-29T08:46:54;27.80;55.10
14577;DHT22;7375;46.072;14.470;2022-07-29T08:49:21;27.80;55.10
14577;DHT22;7375;46.072;14.470;2022-07-29T08:51:48;27.80;55.10
14577;DHT22;7375;46.072;14.470;2022-07-29T08:54:17;27.80;55.30
14577;DHT22;7375;46.072;14.470;2022-07-29T08:56:45;27.80;55.30
14577;DHT22;7375;46.072;14.470;2022-07-29T08:59:14;27.80;55.10
14577;DHT22;7375;46.072;14.470;2022-07-29T09:01:42;27.80;54.90
14577;DHT22;7375;46.072;14.470;2022-07-29T09:04:12;27.80;55.00
14577;DHT22;7375;46.072;14.470;2022-07-29T09:06:43;27.80;55.00
14577;DHT22;7375;46.072;14.470;2022-07-29T09:09:11;27.80;55.10
14577;DHT22;7375;46.072;14.470;2022-07-29T09:11:43;27.80;55.10
14577;DHT22;7375;46.072;14.470;2022-07-29T09:14:11;27.70;55.10
14577;DHT22;7375;46.072;14.470;2022-07-29T09:16:47;27.70;55.10
14577;DHT22;7375;46.072;14.470;2022-07-29T09:19:22;27.80;55.10
14577;DHT22;7375;46.072;14.470;2022-07-29T09:21:49;27.70;55.20
14577;DHT22;7375;46.072;14.470;2022-07-29T09:24:25;27.80;55.20
14577;DHT22;7375;46.072;14.470;2022-07-29T09:26:53;27.80;55.30
14577;DHT22;7375;46.072;14.470;2022-07-29T09:29:23;27.80;55.10
14577;DHT22;7375;46.072;14.470;2022-07-29T09:31:50;27.80;55.10
14577;DHT22;7375;46.072;14.470;2022-07-29T09:34:20;27.80;54.90
14577;DHT22;7375;46.072;14.470;2022-07-29T09:36:48;27.80;54.90
14577;DHT22;7375;46.072;14.470;2022-07-29T09:39:16;27.80;54.80
14577;DHT22;7375;46.072;14.470;2022-07-29T09:41:55;27.90;54.90
14577;DHT22;7375;46.072;14.470;2022-07-29T09:44:22;27.90;54.80
14577;DHT22;7375;46.072;14.470;2022-07-29T09:46:56;27.90;54.80
14577;DHT22;7375;46.072;14.470;2022-07-29T09:49:24;27.90;54.70
14577;DHT22;7375;46.072;14.470;2022-07-29T09:52:00;27.90;54.70
14577;DHT22;7375;46.072;14.470;2022-07-29T09:54:29;27.90;54.70
14577;DHT22;7375;46.072;14.470;2022-07-29T09:57:04;27.90;54.80
14577;DHT22;7375;46.072;14.470;2022-07-29T09:59:31;27.90;54.80
14577;DHT22;7375;46.072;14.470;2022-07-29T10:01:58;27.80;54.90
14577;DHT22;7375;46.072;14.470;2022-07-29T10:04:36;27.80;55.10
14577;DHT22;7375;46.072;14.470;2022-07-29T10:07:02;27.80;55.00
14577;DHT22;7375;46.072;14.470;2022-07-29T10:09:30;27.70;55.10
14577;DHT22;7375;46.072;14.470;2022-07-29T10:12:09;27.70;55.60
14577;DHT22;7375;46.072;14.470;2022-07-29T10:14:39;27.70;55.30
14577;DHT22;7375;46.072;14.470;2022-07-29T10:17:06;27.60;55.20
14577;DHT22;7375;46.072;14.470;2022-07-29T10:19:33;27.60;55.30
14577;DHT22;7375;46.072;14.470;2022-07-29T10:22:00;27.60;55.30
14577;DHT22;7375;46.072;14.470;2022-07-29T10:24:28;27.60;55.30
14577;DHT22;7375;46.072;14.470;2022-07-29T10:26:55;27.60;55.40
14577;DHT22;7375;46.072;14.470;2022-07-29T10:29:24;27.50;55.40
14577;DHT22;7375;46.072;14.470;2022-07-29T10:31:53;27.50;55.50
14577;DHT22;7375;46.072;14.470;2022-07-29T10:34:27;27.50;55.60
14577;DHT22;7375;46.072;14.470;2022-07-29T10:36:56;27.50;55.70
14577;DHT22;7375;46.072;14.470;2022-07-29T10:39:29;27.40;55.70
14577;DHT22;7375;46.072;14.470;2022-07-29T10:42:10;27.40;55.70
14577;DHT22;7375;46.072;14.470;2022-07-29T10:44:40;27.40;55.70
14577;DHT22;7375;46.072;14.470;2022-07-29T10:47:08;27.40;55.80
14577;DHT22;7375;46.072;14.470;2022-07-29T10:49:53;27.40;55.90
14577;DHT22;7375;46.072;14.470;2022-07-29T10:52:21;27.30;55.90
14577;DHT22;7375;46.072;14.470;2022-07-29T10:54:50;27.40;56.00
14577;DHT22;7375;46.072;14.470;2022-07-29T10:57:19;27.30;56.60
14577;DHT22;7375;46.072;14.470;2022-07-29T10:59:48;27.30;56.00
14577;DHT22;7375;46.072;14.470;2022-07-29T11:05:01;27.30;56.10
14577;DHT22;7375;46.072;14.470;2022-07-29T11:07:29;27.20;56.10
14577;DHT22;7375;46.072;14.470;2022-07-29T11:12:46;27.10;56.20
14577;DHT22;7375;46.072;14.470;2022-07-29T11:15:15;27.20;56.20
14577;DHT22;7375;46.072;14.470;2022-07-29T11:18:03;27.10;56.20
14577;DHT22;7375;46.072;14.470;2022-07-29T11:20:30;27.20;56.30
14577;DHT22;7375;46.072;14.470;2022-07-29T11:22:57;27.20;56.90
14577;DHT22;7375;46.072;14.470;2022-07-29T11:25:24;27.20;56.30
14577;DHT22;7375;46.072;14.470;2022-07-29T11:27:51;27.10;56.30
14577;DHT22;7375;46.072;14.470;2022-07-29T11:30:20;27.10;56.30
14577;DHT22;7375;46.072;14.470;2022-07-29T11:32:48;27.10;56.90
14577;DHT22;7375;46.072;14.470;2022-07-29T11:35:16;27.10;56.40
14577;DHT22;7375;46.072;14.470;2022-07-29T11:37:45;27.10;56.40
14577;DHT22;7375;46.072;14.470;2022-07-29T11:40:15;27.10;56.50
14577;DHT22;7375;46.072;14.470;2022-07-29T11:42:43;27.10;56.60
14577;DHT22;7375;46.072;14.470;2022-07-29T11:45:11;27.10;56.70
14577;DHT22;7375;46.072;14.470;2022-07-29T11:47:41;27.00;56.70
14577;DHT22;7375;46.072;14.470;2022-07-29T11:50:10;27.00;56.70
14577;DHT22;7375;46.072;14.470;2022-07-29T11:52:38;27.00;56.70
14577;DHT22;7375;46.072;14.470;2022-07-29T11:55:11;27.00;56.80
14577;DHT22;7375;46.072;14.470;2022-07-29T11:57:45;27.00;56.90
14577;DHT22;7375;46.072;14.470;2022-07-29T12:00:12;27.00;56.90
14577;DHT22;7375;46.072;14.470;2022-07-29T12:02:48;27.00;56.90
14577;DHT22;7375;46.072;14.470;2022-07-29T12:05:18;27.00;57.00
14577;DHT22;7375;46.072;14.470;2022-07-29T12:07:45;27.00;57.00
14577;DHT22;7375;46.072;14.470;2022-07-29T12:10:11;27.00;57.10
14577;DHT22;7375;46.072;14.470;2022-07-29T12:12:38;26.90;57.10
14577;DHT22;7375;46.072;14.470;2022-07-29T12:15:12;26.90;57.20
14577;DHT22;7375;46.072;14.470;2022-07-29T12:17:43;26.90;57.30
14577;DHT22;7375;46.072;14.470;2022-07-29T12:20:11;26.90;57.50
14577;DHT22;7375;46.072;14.470;2022-07-29T12:22:39;26.90;57.50
14577;DHT22;7375;46.072;14.470;2022-07-29T12:25:07;26.90;57.50
14577;DHT22;7375;46.072;14.470;2022-07-29T12:27:35;26.90;57.60
14577;DHT22;7375;46.072;14.470;2022-07-29T12:30:03;26.90;57.70
14577;DHT22;7375;46.072;14.470;2022-07-29T12:32:31;26.90;57.70
14577;DHT22;7375;46.072;14.470;2022-07-29T12:35:04;26.90;57.70
14577;DHT22;7375;46.072;14.470;2022-07-29T12:37:34;26.90;58.40
14577;DHT22;7375;46.072;14.470;2022-07-29T12:40:02;26.90;57.70
14577;DHT22;7375;46.072;14.470;2022-07-29T12:42:31;26.90;57.60
14577;DHT22;7375;46.072;14.470;2022-07-29T12:45:01;26.90;57.60
14577;DHT22;7375;46.072;14.470;2022-07-29T12:47:29;26.90;57.60
14577;DHT22;7375;46.072;14.470;2022-07-29T12:50:07;26.90;57.70
14577;DHT22;7375;46.072;14.470;2022-07-29T12:52:38;26.80;57.60
14577;DHT22;7375;46.072;14.470;2022-07-29T12:55:06;26.90;57.60
14577;DHT22;7375;46.072;14.470;2022-07-29T12:57:44;26.80;57.60
14577;DHT22;7375;46.072;14.470;2022-07-29T13:00:12;26.80;57.60
14577;DHT22;7375;46.072;14.470;2022-07-29T13:02:40;26.80;57.70
14577;DHT22;7375;46.072;14.470;2022-07-29T13:05:08;26.80;57.70
14577;DHT22;7375;46.072;14.470;2022-07-29T13:07:35;26.80;57.70
14577;DHT22;7375;46.072;14.470;2022-07-29T13:10:11;26.80;57.80
14577;DHT22;7375;46.072;14.470;2022-07-29T13:12:38;26.80;57.80
14577;DHT22;7375;46.072;14.470;2022-07-29T13:15:12;26.80;57.80
14577;DHT22;7375;46.072;14.470;2022-07-29T13:17:47;26.80;57.80
14577;DHT22;7375;46.072;14.470;2022-07-29T13:20:14;26.80;57.80
14577;DHT22;7375;46.072;14.470;2022-07-29T13:22:42;26.80;57.80
14577;DHT22;7375;46.072;14.470;2022-07-29T13:25:13;26.80;57.80
14577;DHT22;7375;46.072;14.470;2022-07-29T13:27:40;26.80;57.80
14577;DHT22;7375;46.072;14.470;2022-07-29T13:30:08;26.80;57.90
14577;DHT22;7375;46.072;14.470;2022-07-29T13:32:36;26.80;57.90
14577;DHT22;7375;46.072;14.470;2022-07-29T13:35:05;26.80;57.90
14577;DHT22;7375;46.072;14.470;2022-07-29T13:37:35;26.80;57.90
14577;DHT22;7375;46.072;14.470;2022-07-29T13:40:04;26.80;57.90
14577;DHT22;7375;46.072;14.470;2022-07-29T13:42:32;26.80;57.90
14577;DHT22;7375;46.072;14.470;2022-07-29T13:44:59;26.80;58.00
14577;DHT22;7375;46.072;14.470;2022-07-29T13:47:30;26.80;58.00
14577;DHT22;7375;46.072;14.470;2022-07-29T13:49:57;26.80;58.00
14577;DHT22;7375;46.072;14.470;2022-07-29T13:52:24;26.80;58.00
14577;DHT22;7375;46.072;14.470;2022-07-29T13:54:51;26.80;58.00
14577;DHT22;7375;46.072;14.470;2022-07-29T13:57:18;26.80;58.00
14577;DHT22;7375;46.072;14.470;2022-07-29T13:59:49;26.80;58.00
14577;DHT22;7375;46.072;14.470;2022-07-29T14:02:16;26.80;58.10
14577;DHT22;7375;46.072;14.470;2022-07-29T14:04:43;26.80;58.10
14577;DHT22;7375;46.072;14.470;2022-07-29T14:07:13;26.80;58.10
14577;DHT22;7375;46.072;14.470;2022-07-29T14:09:40;26.80;58.10
14577;DHT22;7375;46.072;14.470;2022-07-29T14:12:10;26.80;58.10
14577;DHT22;7375;46.072;14.470;2022-07-29T14:14:37;26.80;58.20
14577;DHT22;7375;46.072;14.470;2022-07-29T14:17:05;26.80;58.30
14577;DHT22;7375;46.072;14.470;2022-07-29T14:19:34;26.80;58.30
14577;DHT22;7375;46.072;14.470;2022-07-29T14:22:05;26.80;58.30
14577;DHT22;7375;46.072;14.470;2022-07-29T14:24:32;26.80;58.20
14577;DHT22;7375;46.072;14.470;2022-07-29T14:26:59;26.80;58.20
14577;DHT22;7375;46.072;14.470;2022-07-29T14:29:29;26.80;58.20
14577;DHT22;7375;46.072;14.470;2022-07-29T14:31:55;26.80;58.20
14577;DHT22;7375;46.072;14.470;2022-07-29T14:34:24;26.80;58.10
14577;DHT22;7375;46.072;14.470;2022-07-29T14:36:50;26.80;58.20
14577;DHT22;7375;46.072;14.470;2022-07-29T14:39:20;26.80;58.20
14577;DHT22;7375;46.072;14.470;2022-07-29T14:41:48;26.80;58.20
14577;DHT22;7375;46.072;14.470;2022-07-29T14:44:15;26.80;58.10
14577;DHT22;7375;46.072;14.470;2022-07-29T14:46:42;26.80;58.10
14577;DHT22;7375;46.072;14.470;2022-07-29T14:49:08;26.80;58.20
14577;DHT22;7375;46.072;14.470;2022-07-29T14:51:36;26.80;58.20
14577;DHT22;7375;46.072;14.470;2022-07-29T14:54:03;26.80;58.10
14577;DHT22;7375;46.072;14.470;2022-07-29T14:56:30;26.80;58.40
14577;DHT22;7375;46.072;14.470;2022-07-29T14:58:57;26.80;58.40
14577;DHT22;7375;46.072;14.470;2022-07-29T15:01:24;26.80;58.40
14577;DHT22;7375;46.072;14.470;2022-07-29T15:03:54;26.80;58.50
14577;DHT22;7375;46.072;14.470;2022-07-29T15:06:21;26.80;58.60
14577;DHT22;7375;46.072;14.470;2022-07-29T15:08:49;26.80;58.60
14577;DHT22;7375;46.072;14.470;2022-07-29T15:11:19;26.80;58.60
14577;DHT22;7375;46.072;14.470;2022-07-29T15:13:55;26.80;58.40
14577;DHT22;7375;46.072;14.470;2022-07-29T15:16:25;26.90;58.40
14577;DHT22;7375;46.072;14.470;2022-07-29T15:18:55;26.90;58.30
14577;DHT22;7375;46.072;14.470;2022-07-29T15:21:26;26.90;58.20
14577;DHT22;7375;46.072;14.470;2022-07-29T15:23:57;26.90;58.20
14577;DHT22;7375;46.072;14.470;2022-07-29T15:26:27;26.90;58.20
14577;DHT22;7375;46.072;14.470;2022-07-29T15:29:04;26.90;58.10
14577;DHT22;7375;46.072;14.470;2022-07-29T15:31:32;26.90;58.10
14577;DHT22;7375;46.072;14.470;2022-07-29T15:34:04;26.90;58.20
14577;DHT22;7375;46.072;14.470;2022-07-29T15:36:36;26.90;58.10
14577;DHT22;7375;46.072;14.470;2022-07-29T15:39:12;26.90;58.10
14577;DHT22;7375;46.072;14.470;2022-07-29T15:41:39;26.90;58.10
14577;DHT22;7375;46.072;14.470;2022-07-29T15:44:09;26.90;58.10